sensor_id;sensor_type;location;lat;lon;timestamp;pressure;altitude;pressure_sealevel;temperature
70831;BMP180;58451;51.550;7.208;2022-11-18T00:53:40;98906.80;;;8.50
70831;BMP180;58451;51.550;7.208;2022-11-18T00:55:12;98909.40;;;8.50
70831;BMP180;58451;51.550;7.208;2022-11-18T00:56:43;98909.20;;;8.50
70831;BMP180;58451;51.550;7.208;2022-11-18T00:58:16;98908.60;;;8.50
70831;BMP180;58451;51.550;7.208;2022-11-18T00:59:48;98908.00;;;8.50
70831;BMP180;58451;51.550;7.208;2022-11-18T01:01:19;98903.20;;;8.50
70831;BMP180;58451;51.550;7.208;2022-11-18T01:02:53;98908.40;;;8.50
70831;BMP180;58451;51.550;7.208;2022-11-18T01:04:25;98906.60;;;8.50
70831;BMP180;58451;51.550;7.208;2022-11-18T01:05:57;98919.80;;;8.50
70831;BMP180;58451;51.550;7.208;2022-11-18T01:07:29;98915.60;;;8.50
70831;BMP180;58451;51.550;7.208;2022-11-18T01:09:00;98919.20;;;8.50
70831;BMP180;58451;51.550;7.208;2022-11-18T01:10:34;98918.80;;;8.50
70831;BMP180;58451;51.550;7.208;2022-11-18T01:12:08;98919.00;;;8.50
70831;BMP180;58451;51.550;7.208;2022-11-18T01:13:59;98919.60;;;8.50
70831;BMP180;58451;51.550;7.208;2022-11-18T01:15:41;98916.40;;;8.50
70831;BMP180;58451;51.550;7.208;2022-11-18T01:17:13;98919.20;;;8.48
70831;BMP180;58451;51.550;7.208;2022-11-18T01:18:46;98922.80;;;8.50
70831;BMP180;58451;51.550;7.208;2022-11-18T01:20:18;98923.60;;;8.44
70831;BMP180;58451;51.550;7.208;2022-11-18T01:21:50;98932.00;;;8.48
70831;BMP180;58451;51.550;7.208;2022-11-18T01:23:22;98928.60;;;8.42
70831;BMP180;58451;51.550;7.208;2022-11-18T01:24:54;98933.20;;;8.50
70831;BMP180;58451;51.550;7.208;2022-11-18T01:26:26;98935.00;;;8.50
70831;BMP180;58451;51.550;7.208;2022-11-18T01:27:57;98937.60;;;8.50
70831;BMP180;58451;51.550;7.208;2022-11-18T01:29:29;98939.80;;;8.50
70831;BMP180;58451;51.550;7.208;2022-11-18T01:31:07;98943.40;;;8.50
70831;BMP180;58451;51.550;7.208;2022-11-18T01:32:40;98941.20;;;8.50
70831;BMP180;58451;51.550;7.208;2022-11-18T01:34:11;98949.00;;;8.54
70831;BMP180;58451;51.550;7.208;2022-11-18T01:35:44;98945.00;;;8.56
70831;BMP180;58451;51.550;7.208;2022-11-18T01:37:15;98941.60;;;8.58
70831;BMP180;58451;51.550;7.208;2022-11-18T01:38:49;98944.40;;;8.60
70831;BMP180;58451;51.550;7.208;2022-11-18T01:40:21;98940.80;;;8.60
70831;BMP180;58451;51.550;7.208;2022-11-18T01:41:53;98945.40;;;8.60
70831;BMP180;58451;51.550;7.208;2022-11-18T01:43:24;98950.40;;;8.60
70831;BMP180;58451;51.550;7.208;2022-11-18T01:46:47;98957.20;;;8.62
70831;BMP180;58451;51.550;7.208;2022-11-18T01:48:22;98959.80;;;8.62
70831;BMP180;58451;51.550;7.208;2022-11-18T01:49:57;98962.00;;;8.70
70831;BMP180;58451;51.550;7.208;2022-11-18T01:51:39;98965.40;;;8.70
70831;BMP180;58451;51.550;7.208;2022-11-18T01:53:25;98963.00;;;8.70
70831;BMP180;58451;51.550;7.208;2022-11-18T01:55:13;98962.20;;;8.70
70831;BMP180;58451;51.550;7.208;2022-11-18T01:56:53;98959.40;;;8.70
70831;BMP180;58451;51.550;7.208;2022-11-18T01:58:35;98960.80;;;8.70
70831;BMP180;58451;51.550;7.208;2022-11-18T02:00:09;98961.20;;;8.70
70831;BMP180;58451;51.550;7.208;2022-11-18T02:01:41;98957.20;;;8.70
70831;BMP180;58451;51.550;7.208;2022-11-18T02:03:16;98957.40;;;8.70
70831;BMP180;58451;51.550;7.208;2022-11-18T02:04:50;98960.20;;;8.62
70831;BMP180;58451;51.550;7.208;2022-11-18T02:06:26;98955.60;;;8.62
70831;BMP180;58451;51.550;7.208;2022-11-18T02:08:02;98960.20;;;8.60
70831;BMP180;58451;51.550;7.208;2022-11-18T02:09:36;98958.40;;;8.60
70831;BMP180;58451;51.550;7.208;2022-11-18T02:11:11;98957.40;;;8.60
70831;BMP180;58451;51.550;7.208;2022-11-18T02:13:04;98968.20;;;8.60
70831;BMP180;58451;51.550;7.208;2022-11-18T02:14:42;98967.40;;;8.60
70831;BMP180;58451;51.550;7.208;2022-11-18T02:16:21;98968.80;;;8.60
70831;BMP180;58451;51.550;7.208;2022-11-18T02:26:27;98981.00;;;8.68
70831;BMP180;58451;51.550;7.208;2022-11-18T02:30:09;98979.20;;;8.70
70831;BMP180;58451;51.550;7.208;2022-11-18T02:31:56;98985.80;;;8.70
70831;BMP180;58451;51.550;7.208;2022-11-18T02:33:51;98984.60;;;8.70
70831;BMP180;58451;51.550;7.208;2022-11-18T02:39:57;98986.40;;;8.70
70831;BMP180;58451;51.550;7.208;2022-11-18T02:41:34;98983.80;;;8.70
70831;BMP180;58451;51.550;7.208;2022-11-18T02:43:32;98989.40;;;8.70
70831;BMP180;58451;51.550;7.208;2022-11-18T02:45:11;98992.80;;;8.70
70831;BMP180;58451;51.550;7.208;2022-11-18T02:46:52;98991.80;;;8.70
70831;BMP180;58451;51.550;7.208;2022-11-18T02:48:29;98994.00;;;8.66
70831;BMP180;58451;51.550;7.208;2022-11-18T02:50:08;98991.00;;;8.60
70831;BMP180;58451;51.550;7.208;2022-11-18T02:51:43;98996.40;;;8.60
70831;BMP180;58451;51.550;7.208;2022-11-18T02:53:19;98995.20;;;8.60
70831;BMP180;58451;51.550;7.208;2022-11-18T02:54:53;98995.40;;;8.60
70831;BMP180;58451;51.550;7.208;2022-11-18T02:56:26;99002.40;;;8.50
70831;BMP180;58451;51.550;7.208;2022-11-18T02:58:01;98998.20;;;8.50
70831;BMP180;58451;51.550;7.208;2022-11-18T02:59:34;98997.20;;;8.50
70831;BMP180;58451;51.550;7.208;2022-11-18T03:01:18;98996.60;;;8.50
70831;BMP180;58451;51.550;7.208;2022-11-18T03:02:51;98997.60;;;8.42
70831;BMP180;58451;51.550;7.208;2022-11-18T03:04:25;98998.60;;;8.40
70831;BMP180;58451;51.550;7.208;2022-11-18T03:07:47;98997.20;;;8.40
70831;BMP180;58451;51.550;7.208;2022-11-18T03:09:30;98997.40;;;8.30
70831;BMP180;58451;51.550;7.208;2022-11-18T03:11:16;99005.20;;;8.30
70831;BMP180;58451;51.550;7.208;2022-11-18T03:13:04;99005.00;;;8.20
70831;BMP180;58451;51.550;7.208;2022-11-18T03:18:34;99008.60;;;8.06
70831;BMP180;58451;51.550;7.208;2022-11-18T03:22:20;99017.60;;;8.00
70831;BMP180;58451;51.550;7.208;2022-11-18T03:29:28;99020.40;;;7.90
70831;BMP180;58451;51.550;7.208;2022-11-18T03:31:09;99021.00;;;7.90
70831;BMP180;58451;51.550;7.208;2022-11-18T03:33:07;99023.40;;;7.90
70831;BMP180;58451;51.550;7.208;2022-11-18T03:34:48;99030.20;;;7.90
70831;BMP180;58451;51.550;7.208;2022-11-18T03:36:23;99025.00;;;7.90
70831;BMP180;58451;51.550;7.208;2022-11-18T03:38:19;99029.80;;;7.90
70831;BMP180;58451;51.550;7.208;2022-11-18T03:39:59;99030.40;;;7.90
70831;BMP180;58451;51.550;7.208;2022-11-18T03:41:41;99038.00;;;7.90
70831;BMP180;58451;51.550;7.208;2022-11-18T03:43:21;99037.60;;;7.90
70831;BMP180;58451;51.550;7.208;2022-11-18T03:45:02;99035.60;;;7.90
70831;BMP180;58451;51.550;7.208;2022-11-18T03:46:48;99043.40;;;8.00
70831;BMP180;58451;51.550;7.208;2022-11-18T03:48:32;99049.00;;;8.00
70831;BMP180;58451;51.550;7.208;2022-11-18T03:50:15;99057.80;;;8.00
70831;BMP180;58451;51.550;7.208;2022-11-18T03:51:55;99058.40;;;8.00
70831;BMP180;58451;51.550;7.208;2022-11-18T03:53:34;99059.00;;;8.00
70831;BMP180;58451;51.550;7.208;2022-11-18T03:55:19;99055.00;;;8.00
70831;BMP180;58451;51.550;7.208;2022-11-18T03:57:00;99056.20;;;8.00
70831;BMP180;58451;51.550;7.208;2022-11-18T03:58:56;99060.20;;;8.00
70831;BMP180;58451;51.550;7.208;2022-11-18T04:00:37;99062.80;;;8.04
70831;BMP180;58451;51.550;7.208;2022-11-18T04:02:19;99062.20;;;8.02
70831;BMP180;58451;51.550;7.208;2022-11-18T04:03:51;99061.80;;;8.04
70831;BMP180;58451;51.550;7.208;2022-11-18T04:05:23;99060.00;;;8.00
70831;BMP180;58451;51.550;7.208;2022-11-18T04:07:04;99064.60;;;8.00
70831;BMP180;58451;51.550;7.208;2022-11-18T04:08:45;99067.20;;;8.00
70831;BMP180;58451;51.550;7.208;2022-11-18T04:10:31;99070.00;;;8.02
70831;BMP180;58451;51.550;7.208;2022-11-18T04:12:10;99070.40;;;8.02
70831;BMP180;58451;51.550;7.208;2022-11-18T04:13:44;99080.00;;;8.06
70831;BMP180;58451;51.550;7.208;2022-11-18T04:15:16;99081.80;;;8.06
70831;BMP180;58451;51.550;7.208;2022-11-18T04:16:51;99080.00;;;8.10
70831;BMP180;58451;51.550;7.208;2022-11-18T04:18:26;99083.00;;;8.10
70831;BMP180;58451;51.550;7.208;2022-11-18T04:19:57;99082.40;;;8.10
70831;BMP180;58451;51.550;7.208;2022-11-18T04:21:29;99081.80;;;8.10
70831;BMP180;58451;51.550;7.208;2022-11-18T04:23:02;99083.80;;;8.10
70831;BMP180;58451;51.550;7.208;2022-11-18T04:24:35;99087.20;;;8.18
70831;BMP180;58451;51.550;7.208;2022-11-18T04:26:09;99082.60;;;8.20
70831;BMP180;58451;51.550;7.208;2022-11-18T04:27:42;99082.80;;;8.20
70831;BMP180;58451;51.550;7.208;2022-11-18T04:29:13;99082.40;;;8.20
70831;BMP180;58451;51.550;7.208;2022-11-18T04:30:46;99083.00;;;8.20
70831;BMP180;58451;51.550;7.208;2022-11-18T04:32:17;99083.40;;;8.20
70831;BMP180;58451;51.550;7.208;2022-11-18T04:33:49;99088.80;;;8.20
70831;BMP180;58451;51.550;7.208;2022-11-18T04:35:21;99093.20;;;8.20
70831;BMP180;58451;51.550;7.208;2022-11-18T04:36:54;99098.20;;;8.20
70831;BMP180;58451;51.550;7.208;2022-11-18T04:38:26;99091.40;;;8.20
70831;BMP180;58451;51.550;7.208;2022-11-18T04:39:58;99094.80;;;8.20
70831;BMP180;58451;51.550;7.208;2022-11-18T04:41:31;99094.40;;;8.20
70831;BMP180;58451;51.550;7.208;2022-11-18T04:43:21;99096.60;;;8.20
70831;BMP180;58451;51.550;7.208;2022-11-18T04:44:53;99106.80;;;8.20
70831;BMP180;58451;51.550;7.208;2022-11-18T04:46:25;99102.60;;;8.22
70831;BMP180;58451;51.550;7.208;2022-11-18T04:47:57;99103.40;;;8.30
70831;BMP180;58451;51.550;7.208;2022-11-18T04:49:34;99105.20;;;8.30
70831;BMP180;58451;51.550;7.208;2022-11-18T04:51:06;99110.60;;;8.30
70831;BMP180;58451;51.550;7.208;2022-11-18T04:52:38;99113.60;;;8.30
70831;BMP180;58451;51.550;7.208;2022-11-18T04:54:11;99112.80;;;8.30
70831;BMP180;58451;51.550;7.208;2022-11-18T04:55:43;99117.60;;;8.30
70831;BMP180;58451;51.550;7.208;2022-11-18T04:57:14;99116.40;;;8.32
70831;BMP180;58451;51.550;7.208;2022-11-18T04:58:46;99117.20;;;8.32
70831;BMP180;58451;51.550;7.208;2022-11-18T05:00:18;99116.00;;;8.38
70831;BMP180;58451;51.550;7.208;2022-11-18T05:01:52;99118.60;;;8.40
70831;BMP180;58451;51.550;7.208;2022-11-18T05:03:24;99121.00;;;8.40
70831;BMP180;58451;51.550;7.208;2022-11-18T05:04:55;99123.60;;;8.40
70831;BMP180;58451;51.550;7.208;2022-11-18T05:06:28;99121.80;;;8.40
70831;BMP180;58451;51.550;7.208;2022-11-18T05:08:00;99120.80;;;8.34
70831;BMP180;58451;51.550;7.208;2022-11-18T05:09:33;99122.00;;;8.32
70831;BMP180;58451;51.550;7.208;2022-11-18T05:11:06;99126.00;;;8.30
70831;BMP180;58451;51.550;7.208;2022-11-18T05:12:56;99121.40;;;8.30
70831;BMP180;58451;51.550;7.208;2022-11-18T05:14:29;99124.60;;;8.30
70831;BMP180;58451;51.550;7.208;2022-11-18T05:16:01;99129.40;;;8.30
70831;BMP180;58451;51.550;7.208;2022-11-18T05:17:34;99133.80;;;8.30
70831;BMP180;58451;51.550;7.208;2022-11-18T05:19:07;99133.20;;;8.30
70831;BMP180;58451;51.550;7.208;2022-11-18T05:20:41;99137.20;;;8.30
70831;BMP180;58451;51.550;7.208;2022-11-18T05:22:13;99139.20;;;8.30
70831;BMP180;58451;51.550;7.208;2022-11-18T05:23:46;99137.40;;;8.24
70831;BMP180;58451;51.550;7.208;2022-11-18T05:25:19;99139.60;;;8.20
70831;BMP180;58451;51.550;7.208;2022-11-18T05:26:52;99146.80;;;8.20
70831;BMP180;58451;51.550;7.208;2022-11-18T05:28:24;99143.20;;;8.20
70831;BMP180;58451;51.550;7.208;2022-11-18T05:29:57;99143.20;;;8.20
70831;BMP180;58451;51.550;7.208;2022-11-18T05:31:29;99144.20;;;8.20
70831;BMP180;58451;51.550;7.208;2022-11-18T05:33:01;99146.00;;;8.20
70831;BMP180;58451;51.550;7.208;2022-11-18T05:34:33;99148.60;;;8.22
70831;BMP180;58451;51.550;7.208;2022-11-18T05:36:11;99147.40;;;8.20
70831;BMP180;58451;51.550;7.208;2022-11-18T05:37:43;99152.40;;;8.22
70831;BMP180;58451;51.550;7.208;2022-11-18T05:39:15;99153.80;;;8.22
70831;BMP180;58451;51.550;7.208;2022-11-18T05:40:48;99154.80;;;8.28
70831;BMP180;58451;51.550;7.208;2022-11-18T05:42:20;99158.20;;;8.30
70831;BMP180;58451;51.550;7.208;2022-11-18T05:44:10;99162.60;;;8.30
70831;BMP180;58451;51.550;7.208;2022-11-18T05:45:42;99160.20;;;8.30
70831;BMP180;58451;51.550;7.208;2022-11-18T05:48:20;99164.00;;;8.30
70831;BMP180;58451;51.550;7.208;2022-11-18T05:49:52;99161.80;;;8.30
70831;BMP180;58451;51.550;7.208;2022-11-18T05:51:25;99167.60;;;8.30
70831;BMP180;58451;51.550;7.208;2022-11-18T05:52:57;99165.40;;;8.34
70831;BMP180;58451;51.550;7.208;2022-11-18T05:54:29;99167.20;;;8.40
70831;BMP180;58451;51.550;7.208;2022-11-18T05:57:50;99166.00;;;8.40
70831;BMP180;58451;51.550;7.208;2022-11-18T05:59:23;99166.20;;;8.40
70831;BMP180;58451;51.550;7.208;2022-11-18T06:01:01;99171.80;;;8.40
70831;BMP180;58451;51.550;7.208;2022-11-18T06:02:34;99174.80;;;8.40
70831;BMP180;58451;51.550;7.208;2022-11-18T06:04:14;99172.40;;;8.40
70831;BMP180;58451;51.550;7.208;2022-11-18T06:05:47;99178.40;;;8.50
70831;BMP180;58451;51.550;7.208;2022-11-18T06:07:45;99179.60;;;8.50
70831;BMP180;58451;51.550;7.208;2022-11-18T06:09:25;99182.20;;;8.50
70831;BMP180;58451;51.550;7.208;2022-11-18T06:11:01;99186.40;;;8.50
70831;BMP180;58451;51.550;7.208;2022-11-18T06:12:44;99188.80;;;8.52
70831;BMP180;58451;51.550;7.208;2022-11-18T06:14:33;99190.20;;;8.58
70831;BMP180;58451;51.550;7.208;2022-11-18T06:16:07;99199.80;;;8.60
70831;BMP180;58451;51.550;7.208;2022-11-18T06:17:57;99198.60;;;8.60
70831;BMP180;58451;51.550;7.208;2022-11-18T06:19:32;99201.20;;;8.60
70831;BMP180;58451;51.550;7.208;2022-11-18T06:21:05;99202.20;;;8.60
70831;BMP180;58451;51.550;7.208;2022-11-18T06:22:37;99204.20;;;8.60
70831;BMP180;58451;51.550;7.208;2022-11-18T06:24:17;99205.20;;;8.64
70831;BMP180;58451;51.550;7.208;2022-11-18T06:25:49;99204.20;;;8.68
70831;BMP180;58451;51.550;7.208;2022-11-18T06:27:21;99208.80;;;8.68
70831;BMP180;58451;51.550;7.208;2022-11-18T06:28:54;99210.00;;;8.70
70831;BMP180;58451;51.550;7.208;2022-11-18T06:30:27;99208.20;;;8.70
70831;BMP180;58451;51.550;7.208;2022-11-18T06:31:59;99211.60;;;8.68
70831;BMP180;58451;51.550;7.208;2022-11-18T06:33:31;99211.00;;;8.70
70831;BMP180;58451;51.550;7.208;2022-11-18T06:35:03;99217.40;;;8.68
70831;BMP180;58451;51.550;7.208;2022-11-18T06:36:36;99219.00;;;8.64
70831;BMP180;58451;51.550;7.208;2022-11-18T06:38:08;99216.40;;;8.60
70831;BMP180;58451;51.550;7.208;2022-11-18T06:39:40;99217.40;;;8.60
70831;BMP180;58451;51.550;7.208;2022-11-18T06:41:12;99223.00;;;8.60
70831;BMP180;58451;51.550;7.208;2022-11-18T06:42:44;99226.80;;;8.60
70831;BMP180;58451;51.550;7.208;2022-11-18T06:44:34;99234.40;;;8.60
70831;BMP180;58451;51.550;7.208;2022-11-18T06:46:14;99235.80;;;8.60
70831;BMP180;58451;51.550;7.208;2022-11-18T06:48:05;99241.20;;;8.60
70831;BMP180;58451;51.550;7.208;2022-11-18T06:49:37;99243.00;;;8.60
70831;BMP180;58451;51.550;7.208;2022-11-18T06:51:09;99240.80;;;8.60
70831;BMP180;58451;51.550;7.208;2022-11-18T06:52:41;99249.20;;;8.60
70831;BMP180;58451;51.550;7.208;2022-11-18T06:54:13;99245.80;;;8.60
70831;BMP180;58451;51.550;7.208;2022-11-18T06:55:46;99248.60;;;8.60
70831;BMP180;58451;51.550;7.208;2022-11-18T06:57:18;99250.60;;;8.60
70831;BMP180;58451;51.550;7.208;2022-11-18T06:58:56;99252.80;;;8.60
70831;BMP180;58451;51.550;7.208;2022-11-18T07:00:28;99253.40;;;8.60
70831;BMP180;58451;51.550;7.208;2022-11-18T07:02:00;99259.80;;;8.60
70831;BMP180;58451;51.550;7.208;2022-11-18T07:03:32;99259.00;;;8.60
70831;BMP180;58451;51.550;7.208;2022-11-18T07:05:05;99265.40;;;8.64
70831;BMP180;58451;51.550;7.208;2022-11-18T07:06:37;99264.60;;;8.68
70831;BMP180;58451;51.550;7.208;2022-11-18T07:08:09;99266.00;;;8.70
70831;BMP180;58451;51.550;7.208;2022-11-18T07:09:40;99267.40;;;8.70
70831;BMP180;58451;51.550;7.208;2022-11-18T07:11:16;99271.00;;;8.70
70831;BMP180;58451;51.550;7.208;2022-11-18T07:12:48;99274.40;;;8.70
70831;BMP180;58451;51.550;7.208;2022-11-18T07:14:20;99273.80;;;8.70
70831;BMP180;58451;51.550;7.208;2022-11-18T07:15:54;99279.20;;;8.70
70831;BMP180;58451;51.550;7.208;2022-11-18T07:17:29;99282.80;;;8.70
70831;BMP180;58451;51.550;7.208;2022-11-18T07:19:13;99280.20;;;8.78
70831;BMP180;58451;51.550;7.208;2022-11-18T07:20:45;99282.80;;;8.80
70831;BMP180;58451;51.550;7.208;2022-11-18T07:22:17;99287.00;;;8.80
70831;BMP180;58451;51.550;7.208;2022-11-18T07:23:49;99285.00;;;8.80
70831;BMP180;58451;51.550;7.208;2022-11-18T07:38:22;99314.00;;;9.38
70831;BMP180;58451;51.550;7.208;2022-11-18T07:39:53;99316.40;;;9.50
70831;BMP180;58451;51.550;7.208;2022-11-18T07:41:28;99320.20;;;9.50
70831;BMP180;58451;51.550;7.208;2022-11-18T07:43:00;99322.80;;;9.50
70831;BMP180;58451;51.550;7.208;2022-11-18T07:44:32;99325.80;;;9.50
70831;BMP180;58451;51.550;7.208;2022-11-18T07:46:14;99327.40;;;9.50
70831;BMP180;58451;51.550;7.208;2022-11-18T07:47:46;99329.40;;;9.50
70831;BMP180;58451;51.550;7.208;2022-11-18T07:49:18;99329.40;;;9.50
70831;BMP180;58451;51.550;7.208;2022-11-18T07:50:50;99333.60;;;9.50
70831;BMP180;58451;51.550;7.208;2022-11-18T07:52:23;99333.00;;;9.50
70831;BMP180;58451;51.550;7.208;2022-11-18T07:53:55;99335.00;;;9.50
70831;BMP180;58451;51.550;7.208;2022-11-18T07:55:27;99339.20;;;9.50
70831;BMP180;58451;51.550;7.208;2022-11-18T07:57:02;99341.80;;;9.50
70831;BMP180;58451;51.550;7.208;2022-11-18T07:58:35;99338.40;;;9.48
70831;BMP180;58451;51.550;7.208;2022-11-18T08:00:09;99342.60;;;9.48
70831;BMP180;58451;51.550;7.208;2022-11-18T08:01:43;99345.20;;;9.50
70831;BMP180;58451;51.550;7.208;2022-11-18T08:03:15;99347.00;;;9.50
70831;BMP180;58451;51.550;7.208;2022-11-18T08:04:47;99350.40;;;9.50
70831;BMP180;58451;51.550;7.208;2022-11-18T08:06:19;99348.20;;;9.50
70831;BMP180;58451;51.550;7.208;2022-11-18T08:07:51;99353.80;;;9.50
70831;BMP180;58451;51.550;7.208;2022-11-18T08:09:24;99352.20;;;9.50
70831;BMP180;58451;51.550;7.208;2022-11-18T08:11:03;99357.40;;;9.50
70831;BMP180;58451;51.550;7.208;2022-11-18T08:12:36;99356.60;;;9.50
70831;BMP180;58451;51.550;7.208;2022-11-18T08:14:08;99360.40;;;9.50
70831;BMP180;58451;51.550;7.208;2022-11-18T08:15:42;99363.20;;;9.56
70831;BMP180;58451;51.550;7.208;2022-11-18T08:17:14;99363.40;;;9.60
70831;BMP180;58451;51.550;7.208;2022-11-18T08:18:46;99361.80;;;9.60
70831;BMP180;58451;51.550;7.208;2022-11-18T08:20:20;99362.20;;;9.62
70831;BMP180;58451;51.550;7.208;2022-11-18T08:21:53;99367.00;;;9.70
70831;BMP180;58451;51.550;7.208;2022-11-18T08:23:25;99369.00;;;9.70
70831;BMP180;58451;51.550;7.208;2022-11-18T08:25:05;99368.40;;;9.72
70831;BMP180;58451;51.550;7.208;2022-11-18T08:26:37;99372.40;;;9.80
70831;BMP180;58451;51.550;7.208;2022-11-18T08:28:11;99372.00;;;9.80
70831;BMP180;58451;51.550;7.208;2022-11-18T08:29:43;99376.40;;;9.86
70831;BMP180;58451;51.550;7.208;2022-11-18T08:31:22;99375.40;;;9.84
70831;BMP180;58451;51.550;7.208;2022-11-18T08:32:55;99374.40;;;9.90
70831;BMP180;58451;51.550;7.208;2022-11-18T08:34:27;99377.60;;;9.90
70831;BMP180;58451;51.550;7.208;2022-11-18T08:36:09;99377.60;;;10.00
70831;BMP180;58451;51.550;7.208;2022-11-18T08:37:41;99380.60;;;10.00
70831;BMP180;58451;51.550;7.208;2022-11-18T08:39:13;99381.00;;;10.02
70831;BMP180;58451;51.550;7.208;2022-11-18T08:40:46;99383.40;;;10.10
70831;BMP180;58451;51.550;7.208;2022-11-18T08:42:18;99382.00;;;10.10
70831;BMP180;58451;51.550;7.208;2022-11-18T08:43:55;99384.40;;;10.20
70831;BMP180;58451;51.550;7.208;2022-11-18T08:45:27;99391.00;;;10.20
70831;BMP180;58451;51.550;7.208;2022-11-18T08:47:01;99387.40;;;10.28
70831;BMP180;58451;51.550;7.208;2022-11-18T08:48:33;99386.60;;;10.24
70831;BMP180;58451;51.550;7.208;2022-11-18T08:50:08;99391.40;;;10.20
70831;BMP180;58451;51.550;7.208;2022-11-18T08:51:40;99382.40;;;10.20
70831;BMP180;58451;51.550;7.208;2022-11-18T08:53:14;99390.00;;;10.24
70831;BMP180;58451;51.550;7.208;2022-11-18T08:54:46;99390.80;;;10.30
70831;BMP180;58451;51.550;7.208;2022-11-18T08:56:21;99393.40;;;10.30
70831;BMP180;58451;51.550;7.208;2022-11-18T08:57:53;99395.20;;;10.30
70831;BMP180;58451;51.550;7.208;2022-11-18T08:59:25;99391.00;;;10.30
70831;BMP180;58451;51.550;7.208;2022-11-18T09:01:01;99400.80;;;10.30
70831;BMP180;58451;51.550;7.208;2022-11-18T09:02:34;99398.20;;;10.28
70831;BMP180;58451;51.550;7.208;2022-11-18T09:04:08;99399.80;;;10.28
70831;BMP180;58451;51.550;7.208;2022-11-18T09:05:40;99402.80;;;10.20
70831;BMP180;58451;51.550;7.208;2022-11-18T09:07:13;99397.40;;;10.20
70831;BMP180;58451;51.550;7.208;2022-11-18T09:08:45;99403.60;;;10.20
70831;BMP180;58451;51.550;7.208;2022-11-18T09:10:17;99404.60;;;10.28
70831;BMP180;58451;51.550;7.208;2022-11-18T09:11:49;99407.00;;;10.30
70831;BMP180;58451;51.550;7.208;2022-11-18T09:13:22;99407.20;;;10.32
70831;BMP180;58451;51.550;7.208;2022-11-18T09:15:15;99408.00;;;10.40
70831;BMP180;58451;51.550;7.208;2022-11-18T09:16:48;99410.40;;;10.40
70831;BMP180;58451;51.550;7.208;2022-11-18T09:18:20;99415.80;;;10.40
70831;BMP180;58451;51.550;7.208;2022-11-18T09:19:52;99417.40;;;10.40
70831;BMP180;58451;51.550;7.208;2022-11-18T09:21:25;99416.20;;;10.50
70831;BMP180;58451;51.550;7.208;2022-11-18T09:22:57;99422.80;;;10.50
70831;BMP180;58451;51.550;7.208;2022-11-18T09:24:29;99424.80;;;10.60
70831;BMP180;58451;51.550;7.208;2022-11-18T09:26:08;99421.40;;;10.60
70831;BMP180;58451;51.550;7.208;2022-11-18T09:27:40;99429.00;;;10.60
70831;BMP180;58451;51.550;7.208;2022-11-18T09:29:12;99425.40;;;10.60
70831;BMP180;58451;51.550;7.208;2022-11-18T09:30:44;99427.40;;;10.60
70831;BMP180;58451;51.550;7.208;2022-11-18T09:32:16;99432.20;;;10.60
70831;BMP180;58451;51.550;7.208;2022-11-18T09:33:47;99432.40;;;10.60
70831;BMP180;58451;51.550;7.208;2022-11-18T09:35:19;99436.00;;;10.62
70831;BMP180;58451;51.550;7.208;2022-11-18T09:36:51;99431.60;;;10.60
70831;BMP180;58451;51.550;7.208;2022-11-18T09:39:23;99433.60;;;10.70
70831;BMP180;58451;51.550;7.208;2022-11-18T09:43:12;99441.80;;;10.80
70831;BMP180;58451;51.550;7.208;2022-11-18T09:49:33;99452.60;;;10.74
70831;BMP180;58451;51.550;7.208;2022-11-18T09:51:11;99455.80;;;10.80
70831;BMP180;58451;51.550;7.208;2022-11-18T09:54:34;99454.00;;;10.80
70831;BMP180;58451;51.550;7.208;2022-11-18T09:56:17;99463.80;;;10.80
70831;BMP180;58451;51.550;7.208;2022-11-18T09:57:56;99467.40;;;10.80
70831;BMP180;58451;51.550;7.208;2022-11-18T09:59:32;99465.40;;;10.80
70831;BMP180;58451;51.550;7.208;2022-11-18T10:01:15;99463.40;;;10.90
70831;BMP180;58451;51.550;7.208;2022-11-18T10:04:48;99468.00;;;11.00
70831;BMP180;58451;51.550;7.208;2022-11-18T10:06:27;99472.40;;;11.10
70831;BMP180;58451;51.550;7.208;2022-11-18T10:10:20;99474.60;;;11.20
70831;BMP180;58451;51.550;7.208;2022-11-18T10:23:44;99482.20;;;11.50
70831;BMP180;58451;51.550;7.208;2022-11-18T10:25:21;99485.40;;;11.60
70831;BMP180;58451;51.550;7.208;2022-11-18T10:26:59;99486.20;;;11.54
70831;BMP180;58451;51.550;7.208;2022-11-18T10:28:33;99485.40;;;11.60
70831;BMP180;58451;51.550;7.208;2022-11-18T10:30:21;99487.60;;;11.60
70831;BMP180;58451;51.550;7.208;2022-11-18T10:32:15;99483.60;;;11.62
70831;BMP180;58451;51.550;7.208;2022-11-18T10:34:01;99489.20;;;11.70
70831;BMP180;58451;51.550;7.208;2022-11-18T10:36:34;99495.40;;;11.80
70831;BMP180;58451;51.550;7.208;2022-11-18T10:39:59;99499.20;;;11.80
70831;BMP180;58451;51.550;7.208;2022-11-18T10:41:48;99499.20;;;11.70
70831;BMP180;58451;51.550;7.208;2022-11-18T10:43:52;99496.80;;;11.80
70831;BMP180;58451;51.550;7.208;2022-11-18T10:45:28;99495.40;;;11.86
70831;BMP180;58451;51.550;7.208;2022-11-18T10:47:26;99496.40;;;11.90
70831;BMP180;58451;51.550;7.208;2022-11-18T10:50:45;99494.80;;;11.90
70831;BMP180;58451;51.550;7.208;2022-11-18T10:52:51;99494.00;;;11.80
70831;BMP180;58451;51.550;7.208;2022-11-18T10:54:27;99492.40;;;11.80
70831;BMP180;58451;51.550;7.208;2022-11-18T10:56:04;99488.40;;;11.90
70831;BMP180;58451;51.550;7.208;2022-11-18T10:57:41;99487.40;;;12.00
70831;BMP180;58451;51.550;7.208;2022-11-18T10:59:30;99487.20;;;12.06
70831;BMP180;58451;51.550;7.208;2022-11-18T11:01:25;99484.80;;;12.10
70831;BMP180;58451;51.550;7.208;2022-11-18T11:03:26;99488.40;;;12.10
70831;BMP180;58451;51.550;7.208;2022-11-18T11:05:18;99486.40;;;12.20
70831;BMP180;58451;51.550;7.208;2022-11-18T11:06:57;99493.80;;;12.30
70831;BMP180;58451;51.550;7.208;2022-11-18T11:08:30;99496.20;;;12.40
70831;BMP180;58451;51.550;7.208;2022-11-18T11:12:14;99495.00;;;12.50
70831;BMP180;58451;51.550;7.208;2022-11-18T11:14:19;99497.00;;;12.50
70831;BMP180;58451;51.550;7.208;2022-11-18T11:16:09;99496.80;;;12.40
70831;BMP180;58451;51.550;7.208;2022-11-18T11:17:59;99501.60;;;12.40
70831;BMP180;58451;51.550;7.208;2022-11-18T11:20:22;99503.60;;;12.30
70831;BMP180;58451;51.550;7.208;2022-11-18T11:21:56;99499.00;;;12.00
70831;BMP180;58451;51.550;7.208;2022-11-18T11:23:32;99498.80;;;11.96
70831;BMP180;58451;51.550;7.208;2022-11-18T11:30:25;99496.20;;;12.04
70831;BMP180;58451;51.550;7.208;2022-11-18T11:32:17;99498.80;;;12.10
70831;BMP180;58451;51.550;7.208;2022-11-18T11:49:16;99511.60;;;12.26
70831;BMP180;58451;51.550;7.208;2022-11-18T11:51:06;99511.40;;;12.40
70831;BMP180;58451;51.550;7.208;2022-11-18T11:53:14;99514.40;;;12.40
70831;BMP180;58451;51.550;7.208;2022-11-18T11:56:41;99516.20;;;12.40